sensor_id;sensor_type;location;lat;lon;timestamp;pressure;altitude;pressure_sealevel;temperature;humidity
81997;BME280;71500;50.806;8.774;2023-08-31T00:01:32;98969.31;;;13.73;78.44
81997;BME280;71500;50.806;8.774;2023-08-31T00:04:04;98974.04;;;13.70;78.62
81997;BME280;71500;50.806;8.774;2023-08-31T00:06:38;98974.55;;;13.69;78.53
81997;BME280;71500;50.806;8.774;2023-08-31T00:09:09;98971.41;;;13.67;78.36
81997;BME280;71500;50.806;8.774;2023-08-31T00:11:41;98975.54;;;13.63;78.50
81997;BME280;71500;50.806;8.774;2023-08-31T00:14:12;98969.98;;;13.61;78.53
81997;BME280;71500;50.806;8.774;2023-08-31T00:16:44;98971.09;;;13.57;78.67
81997;BME280;71500;50.806;8.774;2023-08-31T00:19:16;98972.66;;;13.56;78.51
81997;BME280;71500;50.806;8.774;2023-08-31T00:21:47;98970.62;;;13.57;78.42
81997;BME280;71500;50.806;8.774;2023-08-31T00:24:19;98969.91;;;13.55;78.43
81997;BME280;71500;50.806;8.774;2023-08-31T00:26:51;98967.20;;;13.53;78.60
81997;BME280;71500;50.806;8.774;2023-08-31T00:29:23;98968.13;;;13.53;78.48
81997;BME280;71500;50.806;8.774;2023-08-31T00:31:55;98960.96;;;13.47;78.73
81997;BME280;71500;50.806;8.774;2023-08-31T00:34:26;98964.91;;;13.41;78.70
81997;BME280;71500;50.806;8.774;2023-08-31T00:36:58;98965.61;;;13.33;78.89
81997;BME280;71500;50.806;8.774;2023-08-31T00:39:29;98967.30;;;13.32;78.84
81997;BME280;71500;50.806;8.774;2023-08-31T00:42:03;98974.13;;;13.32;78.91
81997;BME280;71500;50.806;8.774;2023-08-31T00:44:35;98975.60;;;13.33;78.87
81997;BME280;71500;50.806;8.774;2023-08-31T00:47:06;98976.99;;;13.36;78.73
81997;BME280;71500;50.806;8.774;2023-08-31T00:49:38;98981.95;;;13.40;78.54
81997;BME280;71500;50.806;8.774;2023-08-31T00:52:10;98987.08;;;13.40;78.31
81997;BME280;71500;50.806;8.774;2023-08-31T00:54:42;98983.13;;;13.39;78.39
81997;BME280;71500;50.806;8.774;2023-08-31T00:57:14;98987.19;;;13.38;78.49
81997;BME280;71500;50.806;8.774;2023-08-31T00:59:45;98982.27;;;13.35;78.55
81997;BME280;71500;50.806;8.774;2023-08-31T01:02:19;98986.23;;;13.34;78.47
81997;BME280;71500;50.806;8.774;2023-08-31T01:04:57;98979.58;;;13.31;78.52
81997;BME280;71500;50.806;8.774;2023-08-31T01:07:37;98976.02;;;13.29;78.43
81997;BME280;71500;50.806;8.774;2023-08-31T01:10:18;98979.36;;;13.28;78.29
81997;BME280;71500;50.806;8.774;2023-08-31T01:12:57;98981.98;;;13.26;78.62
81997;BME280;71500;50.806;8.774;2023-08-31T01:15:33;98984.84;;;13.27;78.37
81997;BME280;71500;50.806;8.774;2023-08-31T01:18:06;98987.62;;;13.28;78.41
81997;BME280;71500;50.806;8.774;2023-08-31T01:20:44;98985.11;;;13.29;78.30
81997;BME280;71500;50.806;8.774;2023-08-31T01:23:20;98983.91;;;13.31;78.24
81997;BME280;71500;50.806;8.774;2023-08-31T01:25:52;98977.32;;;13.30;78.35
81997;BME280;71500;50.806;8.774;2023-08-31T01:28:24;98983.59;;;13.32;78.15
81997;BME280;71500;50.806;8.774;2023-08-31T01:30:56;98988.61;;;13.28;78.30
81997;BME280;71500;50.806;8.774;2023-08-31T01:33:27;98992.14;;;13.26;78.18
81997;BME280;71500;50.806;8.774;2023-08-31T01:36:00;98993.77;;;13.24;78.19
81997;BME280;71500;50.806;8.774;2023-08-31T01:38:36;98998.80;;;13.22;78.22
81997;BME280;71500;50.806;8.774;2023-08-31T01:41:13;99000.00;;;13.21;78.18
81997;BME280;71500;50.806;8.774;2023-08-31T01:43:45;99000.56;;;13.22;78.22
81997;BME280;71500;50.806;8.774;2023-08-31T01:46:18;99008.11;;;13.23;77.92
81997;BME280;71500;50.806;8.774;2023-08-31T01:48:50;99004.23;;;13.23;78.06
81997;BME280;71500;50.806;8.774;2023-08-31T01:51:21;99001.98;;;13.19;78.14
81997;BME280;71500;50.806;8.774;2023-08-31T01:53:52;99000.11;;;13.12;78.21
81997;BME280;71500;50.806;8.774;2023-08-31T01:56:24;99004.43;;;13.02;78.33
81997;BME280;71500;50.806;8.774;2023-08-31T01:58:55;99005.30;;;12.91;78.60
81997;BME280;71500;50.806;8.774;2023-08-31T02:01:27;99006.12;;;12.84;78.66
81997;BME280;71500;50.806;8.774;2023-08-31T02:03:59;99000.38;;;12.81;79.11
81997;BME280;71500;50.806;8.774;2023-08-31T02:06:31;99001.43;;;12.79;78.78
81997;BME280;71500;50.806;8.774;2023-08-31T02:09:02;99004.12;;;12.74;79.10
81997;BME280;71500;50.806;8.774;2023-08-31T02:11:34;99000.74;;;12.74;79.16
81997;BME280;71500;50.806;8.774;2023-08-31T02:14:08;98994.66;;;12.73;79.27
81997;BME280;71500;50.806;8.774;2023-08-31T02:16:39;98997.20;;;12.73;79.59
81997;BME280;71500;50.806;8.774;2023-08-31T02:19:11;98988.40;;;12.69;79.74
81997;BME280;71500;50.806;8.774;2023-08-31T02:21:42;98999.20;;;12.74;79.98
81997;BME280;71500;50.806;8.774;2023-08-31T02:24:14;99004.48;;;12.74;80.01
81997;BME280;71500;50.806;8.774;2023-08-31T02:26:45;99002.84;;;12.78;79.79
81997;BME280;71500;50.806;8.774;2023-08-31T02:29:16;99000.88;;;12.81;79.60
81997;BME280;71500;50.806;8.774;2023-08-31T02:31:48;99005.78;;;12.87;79.62
81997;BME280;71500;50.806;8.774;2023-08-31T02:34:19;99008.61;;;12.93;79.50
81997;BME280;71500;50.806;8.774;2023-08-31T02:36:50;99010.15;;;12.97;79.43
81997;BME280;71500;50.806;8.774;2023-08-31T02:39:22;99012.23;;;12.99;79.37
81997;BME280;71500;50.806;8.774;2023-08-31T02:41:54;99011.31;;;13.01;79.38
81997;BME280;71500;50.806;8.774;2023-08-31T02:44:25;99009.91;;;13.02;79.29
81997;BME280;71500;50.806;8.774;2023-08-31T02:46:56;99014.89;;;13.01;79.49
81997;BME280;71500;50.806;8.774;2023-08-31T02:49:28;99016.59;;;12.95;79.47
81997;BME280;71500;50.806;8.774;2023-08-31T02:51:59;99022.91;;;12.91;79.67
81997;BME280;71500;50.806;8.774;2023-08-31T02:54:30;99020.67;;;12.90;79.52
81997;BME280;71500;50.806;8.774;2023-08-31T02:57:02;99014.92;;;12.91;79.73
81997;BME280;71500;50.806;8.774;2023-08-31T02:59:33;99018.87;;;12.89;79.90
81997;BME280;71500;50.806;8.774;2023-08-31T03:02:04;99018.61;;;12.88;79.87
81997;BME280;71500;50.806;8.774;2023-08-31T03:04:36;99018.64;;;12.90;79.87
81997;BME280;71500;50.806;8.774;2023-08-31T03:07:07;99018.89;;;12.90;79.74
81997;BME280;71500;50.806;8.774;2023-08-31T03:09:39;99019.77;;;12.94;79.53
81997;BME280;71500;50.806;8.774;2023-08-31T03:12:10;99016.33;;;12.96;79.73
81997;BME280;71500;50.806;8.774;2023-08-31T03:14:41;99008.21;;;12.94;79.91
81997;BME280;71500;50.806;8.774;2023-08-31T03:17:13;99007.20;;;12.91;79.93
81997;BME280;71500;50.806;8.774;2023-08-31T03:19:45;99001.73;;;12.88;80.01
81997;BME280;71500;50.806;8.774;2023-08-31T03:22:16;99007.48;;;12.84;80.02
81997;BME280;71500;50.806;8.774;2023-08-31T03:24:47;99014.86;;;12.80;80.15
81997;BME280;71500;50.806;8.774;2023-08-31T03:27:19;99011.02;;;12.81;79.99
81997;BME280;71500;50.806;8.774;2023-08-31T03:29:50;99011.82;;;12.84;80.08
81997;BME280;71500;50.806;8.774;2023-08-31T03:32:22;99014.04;;;12.83;80.19
81997;BME280;71500;50.806;8.774;2023-08-31T03:34:53;99012.60;;;12.83;80.32
81997;BME280;71500;50.806;8.774;2023-08-31T03:37:24;99017.75;;;12.82;80.16
81997;BME280;71500;50.806;8.774;2023-08-31T03:39:56;99016.17;;;12.81;80.22
81997;BME280;71500;50.806;8.774;2023-08-31T03:42:27;99017.37;;;12.83;80.33
81997;BME280;71500;50.806;8.774;2023-08-31T03:44:59;99023.52;;;12.83;80.27
81997;BME280;71500;50.806;8.774;2023-08-31T03:47:30;99028.77;;;12.87;80.10
81997;BME280;71500;50.806;8.774;2023-08-31T03:50:02;99028.95;;;12.90;80.01
81997;BME280;71500;50.806;8.774;2023-08-31T03:52:34;99027.10;;;12.93;80.12
81997;BME280;71500;50.806;8.774;2023-08-31T03:55:07;99032.05;;;12.97;80.05
81997;BME280;71500;50.806;8.774;2023-08-31T03:57:38;99028.29;;;12.94;80.12
81997;BME280;71500;50.806;8.774;2023-08-31T04:00:12;99034.29;;;12.96;80.04
81997;BME280;71500;50.806;8.774;2023-08-31T04:02:44;99031.59;;;13.00;79.81
81997;BME280;71500;50.806;8.774;2023-08-31T04:05:16;99035.55;;;13.02;79.63
81997;BME280;71500;50.806;8.774;2023-08-31T04:07:47;99026.22;;;13.06;79.37
81997;BME280;71500;50.806;8.774;2023-08-31T04:10:19;99038.18;;;13.08;79.49
81997;BME280;71500;50.806;8.774;2023-08-31T04:12:50;99048.29;;;13.10;79.24
81997;BME280;71500;50.806;8.774;2023-08-31T04:15:21;99050.71;;;13.09;78.92
81997;BME280;71500;50.806;8.774;2023-08-31T04:17:53;99052.02;;;13.08;79.02
81997;BME280;71500;50.806;8.774;2023-08-31T04:20:25;99048.21;;;13.06;79.07
81997;BME280;71500;50.806;8.774;2023-08-31T04:22:56;99049.51;;;13.00;79.07
81997;BME280;71500;50.806;8.774;2023-08-31T04:25:29;99052.87;;;12.99;78.94
81997;BME280;71500;50.806;8.774;2023-08-31T04:28:02;99056.46;;;13.00;78.85
81997;BME280;71500;50.806;8.774;2023-08-31T04:30:33;99057.75;;;13.01;78.82
81997;BME280;71500;50.806;8.774;2023-08-31T04:33:05;99055.73;;;13.02;78.65
81997;BME280;71500;50.806;8.774;2023-08-31T04:35:35;99061.98;;;13.04;78.69
81997;BME280;71500;50.806;8.774;2023-08-31T04:38:07;99064.80;;;13.04;78.65
81997;BME280;71500;50.806;8.774;2023-08-31T04:40:38;99071.15;;;13.03;78.67
81997;BME280;71500;50.806;8.774;2023-08-31T04:43:09;99077.09;;;13.02;78.73
81997;BME280;71500;50.806;8.774;2023-08-31T04:45:41;99079.48;;;13.02;78.60
81997;BME280;71500;50.806;8.774;2023-08-31T04:48:13;99081.90;;;13.02;78.58
81997;BME280;71500;50.806;8.774;2023-08-31T04:50:46;99085.23;;;13.06;78.59
81997;BME280;71500;50.806;8.774;2023-08-31T04:53:17;99087.45;;;13.07;78.49
81997;BME280;71500;50.806;8.774;2023-08-31T04:55:48;99087.88;;;13.08;78.55
81997;BME280;71500;50.806;8.774;2023-08-31T04:58:20;99089.35;;;13.11;78.44
81997;BME280;71500;50.806;8.774;2023-08-31T05:00:52;99094.56;;;13.09;78.36
81997;BME280;71500;50.806;8.774;2023-08-31T05:03:23;99094.25;;;13.08;78.20
81997;BME280;71500;50.806;8.774;2023-08-31T05:05:55;99094.29;;;13.08;78.34
81997;BME280;71500;50.806;8.774;2023-08-31T05:08:26;99084.85;;;13.07;78.25
81997;BME280;71500;50.806;8.774;2023-08-31T05:10:58;99089.16;;;13.06;78.54
81997;BME280;71500;50.806;8.774;2023-08-31T05:13:29;99091.50;;;13.03;78.44
81997;BME280;71500;50.806;8.774;2023-08-31T05:16:00;99092.92;;;13.04;78.30
81997;BME280;71500;50.806;8.774;2023-08-31T05:18:33;99099.46;;;13.06;78.03
81997;BME280;71500;50.806;8.774;2023-08-31T05:21:04;99098.09;;;13.07;78.34
81997;BME280;71500;50.806;8.774;2023-08-31T05:23:35;99104.64;;;13.09;78.40
81997;BME280;71500;50.806;8.774;2023-08-31T05:26:07;99111.50;;;13.05;78.35
81997;BME280;71500;50.806;8.774;2023-08-31T05:28:38;99118.63;;;12.99;78.52
81997;BME280;71500;50.806;8.774;2023-08-31T05:31:10;99125.54;;;12.93;78.67
81997;BME280;71500;50.806;8.774;2023-08-31T05:33:41;99120.25;;;12.88;78.89
81997;BME280;71500;50.806;8.774;2023-08-31T05:36:12;99120.44;;;12.84;79.04
81997;BME280;71500;50.806;8.774;2023-08-31T05:38:44;99121.05;;;12.83;79.23
81997;BME280;71500;50.806;8.774;2023-08-31T05:41:15;99115.11;;;12.82;79.31
81997;BME280;71500;50.806;8.774;2023-08-31T05:43:47;99113.70;;;12.81;79.39
81997;BME280;71500;50.806;8.774;2023-08-31T05:46:18;99122.44;;;12.80;79.27
81997;BME280;71500;50.806;8.774;2023-08-31T05:48:50;99122.71;;;12.86;79.19
81997;BME280;71500;50.806;8.774;2023-08-31T05:51:23;99123.46;;;12.92;79.05
81997;BME280;71500;50.806;8.774;2023-08-31T05:53:54;99124.39;;;12.96;78.99
81997;BME280;71500;50.806;8.774;2023-08-31T05:56:25;99125.83;;;13.01;78.83
81997;BME280;71500;50.806;8.774;2023-08-31T05:58:57;99128.00;;;13.05;79.19
81997;BME280;71500;50.806;8.774;2023-08-31T06:01:29;99125.27;;;13.08;79.17
81997;BME280;71500;50.806;8.774;2023-08-31T06:04:00;99132.59;;;13.10;79.15
81997;BME280;71500;50.806;8.774;2023-08-31T06:06:33;99129.77;;;13.14;78.86
81997;BME280;71500;50.806;8.774;2023-08-31T06:09:05;99138.46;;;13.18;78.73
81997;BME280;71500;50.806;8.774;2023-08-31T06:11:37;99140.44;;;13.19;78.79
81997;BME280;71500;50.806;8.774;2023-08-31T06:14:09;99149.63;;;13.19;78.94
81997;BME280;71500;50.806;8.774;2023-08-31T06:16:40;99153.63;;;13.18;79.03
81997;BME280;71500;50.806;8.774;2023-08-31T06:19:12;99160.80;;;13.19;79.03
81997;BME280;71500;50.806;8.774;2023-08-31T06:21:45;99153.77;;;13.20;79.21
81997;BME280;71500;50.806;8.774;2023-08-31T06:24:18;99154.66;;;13.21;79.11
81997;BME280;71500;50.806;8.774;2023-08-31T06:26:49;99150.08;;;13.24;79.15
81997;BME280;71500;50.806;8.774;2023-08-31T06:29:22;99160.26;;;13.27;78.99
81997;BME280;71500;50.806;8.774;2023-08-31T06:31:53;99166.14;;;13.30;78.94
81997;BME280;71500;50.806;8.774;2023-08-31T06:34:24;99163.06;;;13.32;78.56
81997;BME280;71500;50.806;8.774;2023-08-31T06:36:56;99162.82;;;13.33;78.65
81997;BME280;71500;50.806;8.774;2023-08-31T06:39:28;99164.63;;;13.34;78.65
81997;BME280;71500;50.806;8.774;2023-08-31T06:42:00;99163.77;;;13.34;78.59
81997;BME280;71500;50.806;8.774;2023-08-31T06:44:32;99164.37;;;13.35;78.70
81997;BME280;71500;50.806;8.774;2023-08-31T06:47:04;99166.59;;;13.36;78.78
81997;BME280;71500;50.806;8.774;2023-08-31T06:49:35;99169.23;;;13.38;78.78
81997;BME280;71500;50.806;8.774;2023-08-31T06:52:07;99172.85;;;13.42;78.92
81997;BME280;71500;50.806;8.774;2023-08-31T06:54:58;99168.98;;;13.46;79.02
81997;BME280;71500;50.806;8.774;2023-08-31T06:57:30;99164.92;;;13.49;78.82
81997;BME280;71500;50.806;8.774;2023-08-31T07:00:01;99168.88;;;13.52;79.16
81997;BME280;71500;50.806;8.774;2023-08-31T07:02:37;99171.98;;;13.55;79.05
81997;BME280;71500;50.806;8.774;2023-08-31T07:05:09;99176.21;;;13.60;78.95
81997;BME280;71500;50.806;8.774;2023-08-31T07:07:40;99179.76;;;13.64;78.59
81997;BME280;71500;50.806;8.774;2023-08-31T07:10:11;99180.81;;;13.67;78.77
81997;BME280;71500;50.806;8.774;2023-08-31T07:12:43;99180.61;;;13.70;78.64
81997;BME280;71500;50.806;8.774;2023-08-31T07:15:15;99185.42;;;13.73;78.49
81997;BME280;71500;50.806;8.774;2023-08-31T07:17:46;99192.97;;;13.79;78.46
81997;BME280;71500;50.806;8.774;2023-08-31T07:20:18;99193.00;;;13.84;78.49
81997;BME280;71500;50.806;8.774;2023-08-31T07:22:49;99197.41;;;13.89;78.38
81997;BME280;71500;50.806;8.774;2023-08-31T07:25:21;99196.80;;;13.94;78.25
81997;BME280;71500;50.806;8.774;2023-08-31T07:27:52;99195.58;;;13.99;78.22
81997;BME280;71500;50.806;8.774;2023-08-31T07:30:23;99198.91;;;14.02;78.19
81997;BME280;71500;50.806;8.774;2023-08-31T07:32:55;99199.27;;;14.05;78.07
81997;BME280;71500;50.806;8.774;2023-08-31T07:35:26;99197.89;;;14.08;77.93
81997;BME280;71500;50.806;8.774;2023-08-31T07:37:58;99196.17;;;14.09;77.82
81997;BME280;71500;50.806;8.774;2023-08-31T07:40:29;99201.55;;;14.12;77.70
81997;BME280;71500;50.806;8.774;2023-08-31T07:43:00;99207.60;;;14.14;77.55
81997;BME280;71500;50.806;8.774;2023-08-31T07:45:32;99200.01;;;14.19;77.54
81997;BME280;71500;50.806;8.774;2023-08-31T07:48:04;99205.60;;;14.25;77.44
81997;BME280;71500;50.806;8.774;2023-08-31T07:50:37;99202.95;;;14.30;77.34
81997;BME280;71500;50.806;8.774;2023-08-31T07:53:08;99204.80;;;14.34;77.25
81997;BME280;71500;50.806;8.774;2023-08-31T07:55:40;99201.34;;;14.38;77.23
81997;BME280;71500;50.806;8.774;2023-08-31T07:58:12;99209.22;;;14.42;76.61
81997;BME280;71500;50.806;8.774;2023-08-31T08:00:43;99211.89;;;14.43;76.33
81997;BME280;71500;50.806;8.774;2023-08-31T08:03:14;99212.47;;;14.46;76.40
81997;BME280;71500;50.806;8.774;2023-08-31T08:05:46;99219.10;;;14.49;76.37
81997;BME280;71500;50.806;8.774;2023-08-31T08:08:18;99212.69;;;14.49;76.28
81997;BME280;71500;50.806;8.774;2023-08-31T08:10:53;99222.05;;;14.59;75.89
81997;BME280;71500;50.806;8.774;2023-08-31T08:13:24;99222.09;;;14.64;75.96
81997;BME280;71500;50.806;8.774;2023-08-31T08:15:56;99228.96;;;14.69;75.96
81997;BME280;71500;50.806;8.774;2023-08-31T08:18:27;99222.68;;;14.73;75.23
81997;BME280;71500;50.806;8.774;2023-08-31T08:21:01;99227.81;;;14.77;75.13
81997;BME280;71500;50.806;8.774;2023-08-31T08:23:34;99230.61;;;14.81;74.09
81997;BME280;71500;50.806;8.774;2023-08-31T08:26:05;99232.17;;;14.83;73.80
81997;BME280;71500;50.806;8.774;2023-08-31T08:28:36;99237.55;;;14.87;73.97
81997;BME280;71500;50.806;8.774;2023-08-31T08:31:08;99237.96;;;14.90;73.90
81997;BME280;71500;50.806;8.774;2023-08-31T08:33:39;99236.31;;;14.93;73.93
81997;BME280;71500;50.806;8.774;2023-08-31T08:36:11;99239.85;;;14.97;73.85
81997;BME280;71500;50.806;8.774;2023-08-31T08:38:42;99245.48;;;15.00;72.91
81997;BME280;71500;50.806;8.774;2023-08-31T08:41:15;99246.97;;;15.07;72.53
81997;BME280;71500;50.806;8.774;2023-08-31T08:43:50;99252.33;;;15.11;72.62
81997;BME280;71500;50.806;8.774;2023-08-31T08:46:22;99249.96;;;15.13;72.29
81997;BME280;71500;50.806;8.774;2023-08-31T08:48:54;99246.72;;;15.16;72.49
81997;BME280;71500;50.806;8.774;2023-08-31T08:51:29;99248.79;;;15.18;71.93
81997;BME280;71500;50.806;8.774;2023-08-31T08:54:02;99244.52;;;15.21;72.00
81997;BME280;71500;50.806;8.774;2023-08-31T08:56:33;99249.02;;;15.24;71.71
81997;BME280;71500;50.806;8.774;2023-08-31T08:59:05;99245.25;;;15.27;71.06
81997;BME280;71500;50.806;8.774;2023-08-31T09:01:36;99249.61;;;15.31;70.54
81997;BME280;71500;50.806;8.774;2023-08-31T09:04:08;99249.66;;;15.33;70.05
81997;BME280;71500;50.806;8.774;2023-08-31T09:06:40;99247.01;;;15.34;69.96
81997;BME280;71500;50.806;8.774;2023-08-31T09:09:12;99248.23;;;15.36;69.65
81997;BME280;71500;50.806;8.774;2023-08-31T09:11:44;99247.45;;;15.38;69.67
81997;BME280;71500;50.806;8.774;2023-08-31T09:14:16;99247.61;;;15.40;69.01
81997;BME280;71500;50.806;8.774;2023-08-31T09:16:49;99250.13;;;15.43;68.70
81997;BME280;71500;50.806;8.774;2023-08-31T09:19:22;99245.99;;;15.49;68.17
81997;BME280;71500;50.806;8.774;2023-08-31T09:21:55;99244.99;;;15.55;68.29
81997;BME280;71500;50.806;8.774;2023-08-31T09:24:26;99248.80;;;15.59;67.89
81997;BME280;71500;50.806;8.774;2023-08-31T09:27:00;99249.11;;;15.64;67.22
81997;BME280;71500;50.806;8.774;2023-08-31T09:29:32;99244.33;;;15.68;66.33
81997;BME280;71500;50.806;8.774;2023-08-31T09:32:04;99245.04;;;15.73;65.72
81997;BME280;71500;50.806;8.774;2023-08-31T09:34:37;99250.21;;;15.77;66.06
81997;BME280;71500;50.806;8.774;2023-08-31T09:37:09;99247.73;;;15.82;65.90
81997;BME280;71500;50.806;8.774;2023-08-31T09:39:41;99254.50;;;15.86;65.52
81997;BME280;71500;50.806;8.774;2023-08-31T09:42:13;99253.77;;;15.91;65.38
81997;BME280;71500;50.806;8.774;2023-08-31T09:44:45;99254.35;;;15.95;65.66
81997;BME280;71500;50.806;8.774;2023-08-31T09:47:20;99251.84;;;15.99;65.80
81997;BME280;71500;50.806;8.774;2023-08-31T09:49:52;99249.77;;;16.03;65.91
81997;BME280;71500;50.806;8.774;2023-08-31T09:52:24;99251.58;;;16.07;65.31
81997;BME280;71500;50.806;8.774;2023-08-31T09:54:56;99253.80;;;16.13;64.48
81997;BME280;71500;50.806;8.774;2023-08-31T09:57:29;99255.79;;;16.18;64.08
81997;BME280;71500;50.806;8.774;2023-08-31T10:00:17;99257.15;;;16.23;63.78
81997;BME280;71500;50.806;8.774;2023-08-31T10:02:50;99258.83;;;16.27;62.70
81997;BME280;71500;50.806;8.774;2023-08-31T10:05:22;99259.23;;;16.32;62.17
81997;BME280;71500;50.806;8.774;2023-08-31T10:07:57;99258.36;;;16.38;61.79
81997;BME280;71500;50.806;8.774;2023-08-31T10:10:29;99258.77;;;16.44;61.89
81997;BME280;71500;50.806;8.774;2023-08-31T10:13:01;99259.83;;;16.48;61.37
81997;BME280;71500;50.806;8.774;2023-08-31T10:15:34;99258.52;;;16.53;61.07
81997;BME280;71500;50.806;8.774;2023-08-31T10:18:08;99254.62;;;16.58;60.89
81997;BME280;71500;50.806;8.774;2023-08-31T10:20:43;99257.95;;;16.65;60.14
81997;BME280;71500;50.806;8.774;2023-08-31T10:23:15;99257.23;;;16.71;60.22
81997;BME280;71500;50.806;8.774;2023-08-31T10:26:01;99258.89;;;16.78;60.44
81997;BME280;71500;50.806;8.774;2023-08-31T10:28:41;99257.48;;;16.85;59.95
81997;BME280;71500;50.806;8.774;2023-08-31T10:31:17;99256.20;;;16.91;59.91
81997;BME280;71500;50.806;8.774;2023-08-31T10:33:56;99260.99;;;16.94;58.87
81997;BME280;71500;50.806;8.774;2023-08-31T10:36:41;99261.77;;;16.99;58.92
81997;BME280;71500;50.806;8.774;2023-08-31T10:39:18;99256.11;;;17.04;58.44
81997;BME280;71500;50.806;8.774;2023-08-31T10:41:55;99256.98;;;17.10;58.18
81997;BME280;71500;50.806;8.774;2023-08-31T10:44:30;99259.71;;;17.18;58.07
81997;BME280;71500;50.806;8.774;2023-08-31T10:47:04;99262.67;;;17.27;57.56
81997;BME280;71500;50.806;8.774;2023-08-31T10:49:36;99265.30;;;17.34;56.97
81997;BME280;71500;50.806;8.774;2023-08-31T10:52:18;99261.95;;;17.40;56.54
81997;BME280;71500;50.806;8.774;2023-08-31T10:54:56;99263.29;;;17.48;55.96
81997;BME280;71500;50.806;8.774;2023-08-31T10:57:32;99265.48;;;17.52;55.87
81997;BME280;71500;50.806;8.774;2023-08-31T11:00:08;99261.23;;;17.57;56.60
81997;BME280;71500;50.806;8.774;2023-08-31T11:02:44;99254.13;;;17.64;57.31
81997;BME280;71500;50.806;8.774;2023-08-31T11:05:18;99255.21;;;17.71;57.34
81997;BME280;71500;50.806;8.774;2023-08-31T11:07:53;99259.08;;;17.80;57.77
81997;BME280;71500;50.806;8.774;2023-08-31T11:10:27;99251.90;;;17.88;57.32
81997;BME280;71500;50.806;8.774;2023-08-31T11:12:59;99256.19;;;17.96;57.84
81997;BME280;71500;50.806;8.774;2023-08-31T11:15:31;99254.76;;;17.98;58.24
81997;BME280;71500;50.806;8.774;2023-08-31T11:18:02;99257.86;;;18.09;57.80
81997;BME280;71500;50.806;8.774;2023-08-31T11:20:36;99259.42;;;18.12;57.83
81997;BME280;71500;50.806;8.774;2023-08-31T11:23:07;99258.48;;;18.15;58.12
81997;BME280;71500;50.806;8.774;2023-08-31T11:25:40;99259.70;;;18.17;58.16
81997;BME280;71500;50.806;8.774;2023-08-31T11:28:11;99256.20;;;18.17;57.38
81997;BME280;71500;50.806;8.774;2023-08-31T11:30:42;99251.02;;;18.16;57.12
81997;BME280;71500;50.806;8.774;2023-08-31T11:33:16;99250.37;;;18.15;56.79
81997;BME280;71500;50.806;8.774;2023-08-31T11:35:48;99246.03;;;18.14;56.27
81997;BME280;71500;50.806;8.774;2023-08-31T11:38:20;99251.91;;;18.12;56.40
81997;BME280;71500;50.806;8.774;2023-08-31T11:40:52;99252.77;;;18.11;56.33
81997;BME280;71500;50.806;8.774;2023-08-31T11:43:27;99250.33;;;18.10;56.16
81997;BME280;71500;50.806;8.774;2023-08-31T11:45:58;99254.45;;;18.12;56.47
81997;BME280;71500;50.806;8.774;2023-08-31T11:48:29;99249.19;;;18.13;56.62
81997;BME280;71500;50.806;8.774;2023-08-31T11:51:01;99248.77;;;18.17;56.28
81997;BME280;71500;50.806;8.774;2023-08-31T11:53:33;99245.42;;;18.20;56.29
81997;BME280;71500;50.806;8.774;2023-08-31T11:56:05;99245.23;;;18.23;56.72
81997;BME280;71500;50.806;8.774;2023-08-31T11:58:42;99245.35;;;18.26;56.48
81997;BME280;71500;50.806;8.774;2023-08-31T12:01:32;99244.04;;;18.31;56.58
81997;BME280;71500;50.806;8.774;2023-08-31T12:04:11;99242.80;;;18.31;55.99
81997;BME280;71500;50.806;8.774;2023-08-31T12:06:42;99235.86;;;18.36;55.99
81997;BME280;71500;50.806;8.774;2023-08-31T12:09:18;99238.85;;;18.40;55.61
81997;BME280;71500;50.806;8.774;2023-08-31T12:11:53;99238.58;;;18.46;55.16
81997;BME280;71500;50.806;8.774;2023-08-31T12:14:25;99247.13;;;18.54;55.22
81997;BME280;71500;50.806;8.774;2023-08-31T12:17:06;99247.47;;;18.58;54.77
81997;BME280;71500;50.806;8.774;2023-08-31T12:19:40;99239.72;;;18.58;54.52
81997;BME280;71500;50.806;8.774;2023-08-31T12:22:11;99235.45;;;18.59;54.53
81997;BME280;71500;50.806;8.774;2023-08-31T12:24:43;99237.98;;;18.62;54.71
81997;BME280;71500;50.806;8.774;2023-08-31T12:27:15;99237.95;;;18.62;54.31
81997;BME280;71500;50.806;8.774;2023-08-31T12:29:46;99238.84;;;18.65;54.18
81997;BME280;71500;50.806;8.774;2023-08-31T12:32:18;99238.31;;;18.68;54.99
81997;BME280;71500;50.806;8.774;2023-08-31T12:34:50;99236.14;;;18.72;54.64
81997;BME280;71500;50.806;8.774;2023-08-31T12:37:21;99232.59;;;18.76;54.12
81997;BME280;71500;50.806;8.774;2023-08-31T12:39:52;99221.27;;;18.77;54.14
81997;BME280;71500;50.806;8.774;2023-08-31T12:42:24;99223.59;;;18.80;54.05
81997;BME280;71500;50.806;8.774;2023-08-31T12:44:55;99223.73;;;18.83;53.46
81997;BME280;71500;50.806;8.774;2023-08-31T12:47:26;99226.64;;;18.84;53.10
81997;BME280;71500;50.806;8.774;2023-08-31T12:49:58;99222.95;;;18.86;53.01
81997;BME280;71500;50.806;8.774;2023-08-31T12:52:29;99221.43;;;18.89;53.27
81997;BME280;71500;50.806;8.774;2023-08-31T12:55:01;99218.73;;;18.93;53.48
81997;BME280;71500;50.806;8.774;2023-08-31T12:57:34;99220.44;;;18.92;53.68
81997;BME280;71500;50.806;8.774;2023-08-31T13:00:08;99220.39;;;18.91;54.30
81997;BME280;71500;50.806;8.774;2023-08-31T13:02:41;99219.47;;;18.86;54.11
81997;BME280;71500;50.806;8.774;2023-08-31T13:05:15;99214.96;;;18.81;54.01
81997;BME280;71500;50.806;8.774;2023-08-31T13:07:46;99220.46;;;18.75;54.56
81997;BME280;71500;50.806;8.774;2023-08-31T13:10:18;99223.92;;;18.69;54.99
81997;BME280;71500;50.806;8.774;2023-08-31T13:12:49;99225.55;;;18.64;54.97
81997;BME280;71500;50.806;8.774;2023-08-31T13:15:21;99222.50;;;18.58;55.28
81997;BME280;71500;50.806;8.774;2023-08-31T13:17:52;99227.79;;;18.55;55.42
81997;BME280;71500;50.806;8.774;2023-08-31T13:20:23;99228.88;;;18.55;55.96
81997;BME280;71500;50.806;8.774;2023-08-31T13:22:55;99227.63;;;18.56;55.18
81997;BME280;71500;50.806;8.774;2023-08-31T13:25:26;99229.31;;;18.53;54.70
81997;BME280;71500;50.806;8.774;2023-08-31T13:27:58;99225.29;;;18.52;54.67